You are not logged in, Click here to log in
ICAO: LGSK Country: 希腦的聖馬丁
Latitude: 39.1771 Longitude: 23.5037
Total Arrivals: 2 Total Departures: 2
Latest Arrival: BV24240 (LGKR-LGSK)Stone. Chang Latest Departure: BV24252 (LGSK-LGKR)Stone. Chang
Scenery:
METAR : LGSK 210650Z 02006KT 9999 FEW020 27/19 Q1017

斯基亞索斯鎮島機場JSI